createdAt,value
2023-05-05T00:02:37.686Z,48.03
2023-05-05T00:05:40.604Z,45.05
2023-05-05T00:08:43.147Z,39.78
2023-05-05T00:11:45.842Z,37.57
2023-05-05T00:14:48.394Z,38.63
2023-05-05T00:17:51.179Z,31.13
2023-05-05T00:20:53.912Z,33.53
2023-05-05T00:23:56.569Z,46.63
2023-05-05T00:26:59.306Z,44.70
2023-05-05T00:30:02.107Z,48.27
2023-05-05T00:33:04.817Z,45.88
2023-05-05T00:36:07.702Z,51.10
2023-05-05T00:39:10.975Z,69.32
2023-05-05T00:42:13.561Z,62.33
2023-05-05T00:45:17.006Z,42.50
2023-05-05T00:48:19.684Z,31.58
2023-05-05T00:51:22.966Z,31.50
2023-05-05T00:54:25.719Z,36.03
2023-05-05T00:57:28.664Z,30.97
2023-05-05T01:00:31.759Z,31.67
2023-05-05T01:03:37.353Z,32.75
2023-05-05T01:07:06.420Z,38.05
2023-05-05T01:10:41.287Z,44.22
2023-05-05T01:13:59.233Z,38.73
2023-05-05T01:17:10.524Z,42.07
2023-05-05T01:20:40.924Z,35.70
2023-05-05T01:24:19.894Z,37.83
2023-05-05T01:27:47.582Z,33.65
2023-05-05T01:31:09.499Z,37.67
2023-05-05T01:34:14.928Z,46.03
2023-05-05T01:37:32.513Z,40.40
2023-05-05T01:40:42.039Z,37.97
2023-05-05T01:43:47.630Z,26.77
2023-05-05T01:46:52.126Z,26.23
2023-05-05T01:49:54.661Z,28.10
2023-05-05T01:52:57.921Z,28.60
2023-05-05T01:56:01.528Z,31.38
2023-05-05T01:59:05.077Z,31.15
2023-05-05T02:02:10.583Z,35.73
2023-05-05T02:05:14.354Z,35.60
2023-05-05T02:08:17.651Z,33.60
2023-05-05T02:11:21.925Z,33.75
2023-05-05T02:14:26.759Z,33.25
2023-05-05T02:17:30.190Z,30.50
2023-05-05T02:20:33.424Z,32.83
2023-05-05T02:23:36.547Z,31.90
2023-05-05T02:26:40.814Z,29.75
2023-05-05T02:29:58.058Z,32.20
2023-05-05T02:33:09.484Z,30.73
2023-05-05T02:36:26.231Z,29.00
2023-05-05T02:39:47.377Z,27.85
2023-05-05T02:42:55.937Z,27.92
2023-05-05T02:46:03.969Z,27.40
2023-05-05T02:49:08.169Z,29.87
2023-05-05T02:52:12.359Z,30.37
2023-05-05T02:55:16.705Z,30.13
2023-05-05T02:58:29.344Z,32.13
2023-05-05T03:01:53.886Z,33.58
2023-05-05T03:05:11.119Z,26.10
2023-05-05T03:08:27.177Z,33.43
2023-05-05T03:11:36.268Z,33.13
2023-05-05T03:14:43.454Z,27.48
2023-05-05T03:17:50.632Z,21.10
2023-05-05T03:20:53.631Z,22.60
2023-05-05T03:23:58.403Z,25.37
2023-05-05T03:27:01.628Z,34.42
2023-05-05T03:30:09.822Z,22.27
2023-05-05T03:33:20.429Z,18.08
2023-05-05T03:36:23.128Z,17.90
2023-05-05T03:39:26.365Z,21.03
2023-05-05T03:42:30.117Z,21.70
2023-05-05T03:45:33.298Z,20.08
2023-05-05T03:48:36.163Z,20.00
2023-05-05T03:51:39.175Z,18.73
2023-05-05T03:54:42.623Z,20.73
2023-05-05T03:57:46.138Z,21.70
2023-05-05T04:00:48.761Z,25.27
2023-05-05T04:03:52.300Z,19.88
2023-05-05T04:06:56.036Z,23.93
2023-05-05T04:09:58.616Z,21.17
2023-05-05T04:13:01.582Z,22.92
2023-05-05T04:16:06.630Z,21.05
2023-05-05T04:19:09.374Z,21.30
2023-05-05T04:22:11.997Z,19.20
2023-05-05T04:25:14.993Z,19.70
2023-05-05T04:28:19.592Z,20.38
2023-05-05T04:31:23.825Z,21.33
2023-05-05T04:34:27.278Z,23.70
2023-05-05T04:37:30.436Z,24.50
2023-05-05T04:40:38.237Z,27.33
2023-05-05T04:43:41.622Z,28.48
2023-05-05T04:46:44.504Z,24.50
2023-05-05T04:49:47.198Z,24.73
2023-05-05T04:52:51.378Z,21.10
2023-05-05T04:55:55.326Z,25.13
2023-05-05T04:58:57.905Z,30.00
2023-05-05T05:02:00.892Z,29.38
2023-05-05T05:05:04.035Z,27.95
2023-05-05T05:08:06.820Z,36.93
2023-05-05T05:11:09.495Z,35.57
2023-05-05T05:14:12.583Z,29.85
2023-05-05T05:17:15.554Z,36.30
2023-05-05T05:20:19.206Z,32.97
2023-05-05T05:23:22.965Z,31.23
2023-05-05T05:26:25.752Z,31.53
2023-05-05T05:29:28.540Z,29.73
2023-05-05T05:32:32.891Z,29.95
2023-05-05T05:35:35.888Z,25.77
2023-05-05T05:38:39.450Z,33.13
2023-05-05T05:41:43.080Z,29.43
2023-05-05T05:44:46.243Z,24.55
2023-05-05T05:47:49.713Z,23.10
2023-05-05T05:50:52.858Z,23.85
2023-05-05T05:54:03.706Z,27.00
2023-05-05T05:57:07.104Z,29.37
2023-05-05T06:00:10.910Z,26.42
2023-05-05T06:03:38.171Z,28.67
2023-05-05T06:06:44.827Z,24.80
2023-05-05T06:09:48.239Z,24.27
2023-05-05T06:12:51.021Z,22.97
2023-05-05T06:15:54.415Z,24.65
2023-05-05T06:18:57.185Z,22.67
2023-05-05T06:22:00.465Z,24.58
2023-05-05T06:25:03.606Z,21.77
2023-05-05T06:28:06.393Z,22.47
2023-05-05T06:31:09.262Z,22.67
2023-05-05T06:34:12.282Z,21.52
2023-05-05T06:37:15.318Z,24.17
2023-05-05T06:40:18.510Z,21.63
2023-05-05T06:43:22.107Z,20.10
2023-05-05T06:46:30.242Z,21.23
2023-05-05T06:49:33.294Z,21.88
2023-05-05T06:52:36.249Z,19.92
2023-05-05T06:55:39.143Z,21.37
2023-05-05T06:58:42.429Z,23.03
2023-05-05T07:01:52.025Z,20.92
2023-05-05T07:04:55.700Z,27.30
2023-05-05T07:08:01.851Z,23.02
2023-05-05T07:11:04.786Z,23.70
2023-05-05T07:14:10.515Z,23.87
2023-05-05T07:17:13.460Z,20.98
2023-05-05T07:20:16.520Z,21.40
2023-05-05T07:23:19.257Z,24.17
2023-05-05T07:26:22.129Z,22.07
2023-05-05T07:29:25.038Z,21.03
2023-05-05T07:32:29.938Z,24.48
2023-05-05T07:35:32.758Z,23.50
2023-05-05T07:38:35.455Z,22.40
2023-05-05T07:41:38.178Z,21.53
2023-05-05T07:44:40.902Z,22.70
2023-05-05T07:47:43.952Z,19.73
2023-05-05T07:50:48.659Z,22.00
2023-05-05T07:53:51.650Z,21.02
2023-05-05T07:56:54.975Z,20.00
2023-05-05T07:59:59.046Z,19.23
2023-05-05T08:03:01.889Z,20.75
2023-05-05T08:06:09.640Z,16.05
2023-05-05T08:09:12.404Z,19.20
2023-05-05T08:12:15.493Z,17.47
2023-05-05T08:15:18.415Z,15.40
2023-05-05T08:18:21.325Z,18.38
2023-05-05T08:21:24.065Z,18.65
2023-05-05T08:24:27.521Z,18.80
2023-05-05T08:27:30.619Z,17.23
2023-05-05T08:30:33.349Z,17.77
2023-05-05T08:33:36.142Z,15.57
2023-05-05T08:36:39.133Z,16.73
2023-05-05T08:39:43.366Z,15.93
2023-05-05T08:42:47.002Z,15.23
2023-05-05T08:45:53.991Z,12.17
2023-05-05T08:48:57.890Z,10.10
2023-05-05T08:52:01.878Z,13.35
2023-05-05T08:55:25.722Z,13.13
2023-05-05T08:58:30.680Z,13.80
2023-05-05T09:01:34.159Z,12.07
2023-05-05T09:04:37.254Z,11.80
2023-05-05T09:07:44.245Z,12.90
2023-05-05T09:10:49.171Z,11.60
2023-05-05T09:13:51.954Z,12.33
2023-05-05T09:16:55.172Z,12.07
2023-05-05T09:20:04.894Z,9.43
2023-05-05T09:23:12.911Z,9.77
2023-05-05T09:26:15.879Z,12.35
2023-05-05T09:29:22.762Z,14.50
2023-05-05T09:32:26.320Z,9.40
2023-05-05T09:35:47.832Z,12.30
2023-05-05T09:39:08.952Z,10.75
2023-05-05T09:42:20.972Z,15.10
2023-05-05T09:45:23.700Z,8.50
2023-05-05T09:48:31.567Z,9.63
2023-05-05T09:51:34.813Z,10.75
2023-05-05T09:54:37.794Z,14.43
2023-05-05T09:57:41.070Z,11.65
2023-05-05T10:00:44.313Z,9.90
2023-05-05T10:03:53.874Z,9.60
2023-05-05T10:06:58.127Z,12.45
2023-05-05T10:10:01.001Z,9.45
2023-05-05T10:13:04.137Z,9.70
2023-05-05T10:16:11.616Z,10.30
2023-05-05T10:19:16.551Z,9.43
2023-05-05T10:22:22.918Z,10.93
2023-05-05T10:25:33.771Z,10.85
2023-05-05T10:32:56.931Z,10.23
2023-05-05T10:36:00.888Z,9.10
2023-05-05T10:39:03.556Z,9.82
2023-05-05T10:42:06.547Z,9.32
2023-05-05T10:45:09.818Z,11.15
2023-05-05T10:48:19.484Z,9.57
2023-05-05T10:51:40.330Z,9.17
2023-05-05T10:54:55.916Z,9.82
2023-05-05T10:57:58.595Z,8.05
2023-05-05T11:01:01.408Z,8.68
2023-05-05T11:04:20.394Z,8.90
2023-05-05T11:07:24.089Z,11.03
2023-05-05T11:10:27.068Z,8.88
2023-05-05T11:13:30.291Z,8.02
2023-05-05T11:16:48.006Z,8.25
2023-05-05T11:19:52.396Z,10.27
2023-05-05T11:23:04.292Z,8.50
2023-05-05T11:26:07.362Z,7.63
2023-05-05T11:29:10.011Z,7.40
2023-05-05T11:32:16.080Z,10.40
2023-05-05T11:35:18.948Z,8.87
2023-05-05T11:38:43.244Z,8.90
2023-05-05T11:42:10.996Z,8.57
2023-05-05T11:45:24.099Z,8.18
2023-05-05T11:48:27.498Z,8.52
2023-05-05T11:51:31.112Z,10.50
2023-05-05T11:54:36.807Z,11.17
2023-05-05T11:57:39.633Z,10.10
2023-05-05T12:00:42.938Z,9.25
2023-05-05T12:03:46.280Z,9.35
2023-05-05T12:06:49.306Z,9.30
2023-05-05T12:09:52.359Z,8.23
2023-05-05T12:12:55.657Z,9.25
2023-05-05T12:16:14.415Z,6.93
2023-05-05T12:19:17.214Z,9.93
2023-05-05T12:22:20.810Z,6.70
2023-05-05T12:25:23.817Z,7.23
2023-05-05T12:28:42.628Z,5.90
2023-05-05T12:31:45.458Z,7.50
2023-05-05T12:34:49.287Z,7.68
2023-05-05T12:37:52.022Z,7.93
2023-05-05T12:40:56.155Z,8.87
2023-05-05T12:43:59.724Z,8.93
2023-05-05T12:47:02.560Z,8.13
2023-05-05T12:50:06.010Z,9.57
2023-05-05T12:53:09.203Z,6.53
2023-05-05T12:56:34.851Z,9.17
2023-05-05T12:59:37.810Z,8.20
2023-05-05T13:02:40.661Z,6.35
2023-05-05T13:05:43.578Z,6.55
2023-05-05T13:08:46.373Z,7.83
2023-05-05T13:11:49.252Z,7.17
2023-05-05T13:14:51.975Z,7.03
2023-05-05T13:18:01.740Z,6.43
2023-05-05T13:21:04.752Z,9.07
2023-05-05T13:24:23.482Z,9.60
2023-05-05T13:27:28.736Z,11.10
2023-05-05T13:30:31.466Z,7.25
2023-05-05T13:33:35.235Z,7.65
2023-05-05T13:36:38.131Z,10.05
2023-05-05T13:39:41.121Z,8.00
2023-05-05T13:42:44.271Z,7.67
2023-05-05T13:45:47.160Z,7.32
2023-05-05T13:48:52.486Z,8.18
2023-05-05T13:51:59.297Z,8.45
2023-05-05T13:55:01.970Z,6.83
2023-05-05T13:58:04.810Z,6.47
2023-05-05T14:01:07.766Z,10.98
2023-05-05T14:04:10.881Z,10.45
2023-05-05T14:07:13.911Z,6.82
2023-05-05T14:10:16.839Z,7.23
2023-05-05T14:13:21.954Z,7.17
2023-05-05T14:16:25.111Z,9.57
2023-05-05T14:19:28.180Z,7.90
2023-05-05T14:22:31.358Z,9.27
2023-05-05T14:25:34.323Z,7.93
2023-05-05T14:28:37.231Z,7.37
2023-05-05T14:31:40.266Z,6.88
2023-05-05T14:34:43.077Z,6.75
2023-05-05T14:37:45.901Z,7.55
2023-05-05T14:40:48.742Z,9.13
2023-05-05T14:43:51.453Z,9.33
2023-05-05T14:46:54.553Z,8.68
2023-05-05T14:49:57.265Z,11.80
2023-05-05T14:53:00.149Z,8.23
2023-05-05T14:56:03.035Z,7.27
2023-05-05T14:59:05.996Z,7.30
2023-05-05T15:02:08.854Z,7.47
2023-05-05T15:05:12.086Z,8.90
2023-05-05T15:08:15.571Z,7.90
2023-05-05T15:11:18.463Z,7.23
2023-05-05T15:14:21.349Z,7.00
2023-05-05T15:17:24.159Z,7.72
2023-05-05T15:20:27.046Z,8.23
2023-05-05T15:23:29.993Z,9.05
2023-05-05T15:26:32.993Z,6.27
2023-05-05T15:29:35.777Z,9.30
2023-05-05T15:32:38.802Z,7.22
2023-05-05T15:35:41.763Z,7.97
2023-05-05T15:38:44.639Z,9.52
2023-05-05T15:41:47.443Z,6.83
2023-05-05T15:44:50.745Z,8.77
2023-05-05T15:47:54.104Z,7.30
2023-05-05T15:50:59.861Z,6.45
2023-05-05T15:54:02.748Z,9.50
2023-05-05T15:57:05.645Z,7.83
2023-05-05T16:00:16.038Z,9.40
2023-05-05T16:03:21.148Z,10.05
2023-05-05T16:06:27.495Z,12.50
2023-05-05T16:09:30.536Z,9.45
2023-05-05T16:12:33.527Z,7.07
2023-05-05T16:15:36.340Z,12.00
2023-05-05T16:18:39.079Z,9.48
2023-05-05T16:21:41.926Z,8.23
2023-05-05T16:24:44.923Z,7.97
2023-05-05T16:27:47.786Z,6.63
2023-05-05T16:30:50.530Z,9.30
2023-05-05T16:33:53.588Z,6.68
2023-05-05T16:36:56.806Z,7.28
2023-05-05T16:40:01.417Z,7.03
2023-05-05T16:43:07.622Z,9.90
2023-05-05T16:46:10.457Z,8.20
2023-05-05T16:49:13.386Z,7.43
2023-05-05T16:52:16.312Z,8.98
2023-05-05T16:55:19.370Z,6.88
2023-05-05T16:58:25.476Z,10.33
2023-05-05T17:01:28.630Z,8.23
2023-05-05T17:04:31.268Z,8.93
2023-05-05T17:07:33.916Z,9.25
2023-05-05T17:10:36.930Z,9.52
2023-05-05T17:13:39.581Z,7.47
2023-05-05T17:16:42.549Z,10.13
2023-05-05T17:19:45.534Z,9.57
2023-05-05T17:22:48.409Z,9.40
2023-05-05T17:25:51.703Z,8.20
2023-05-05T17:28:54.472Z,9.83
2023-05-05T17:31:57.264Z,14.60
2023-05-05T17:34:59.973Z,9.52
2023-05-05T17:38:02.810Z,13.13
2023-05-05T17:41:06.534Z,11.60
2023-05-05T17:44:09.288Z,13.33
2023-05-05T17:47:11.993Z,12.07
2023-05-05T17:50:14.706Z,10.60
2023-05-05T17:53:17.435Z,11.20
2023-05-05T17:56:20.352Z,13.25
2023-05-05T17:59:23.273Z,13.33
2023-05-05T18:02:26.287Z,10.60
2023-05-05T18:05:29.998Z,12.70
2023-05-05T18:08:32.681Z,18.23
2023-05-05T18:11:35.402Z,12.43
2023-05-05T18:14:38.083Z,12.10
2023-05-05T18:17:40.793Z,11.07
2023-05-05T18:20:44.490Z,11.02
2023-05-05T18:23:47.226Z,10.70
2023-05-05T18:26:51.211Z,10.80
2023-05-05T18:29:54.125Z,11.07
2023-05-05T18:32:56.957Z,10.03
2023-05-05T18:35:59.776Z,10.20
2023-05-05T18:39:02.718Z,13.85
2023-05-05T18:42:05.593Z,14.88
2023-05-05T18:45:09.273Z,15.17
2023-05-05T18:48:12.229Z,16.83
2023-05-05T18:51:15.048Z,27.27
2023-05-05T18:54:17.898Z,22.33
2023-05-05T18:57:21.367Z,28.25
2023-05-05T19:00:24.589Z,31.30
2023-05-05T19:03:27.317Z,35.73
2023-05-05T19:06:30.247Z,39.33
2023-05-05T19:09:32.942Z,26.40
2023-05-05T19:12:36.468Z,26.08
2023-05-05T19:15:39.226Z,29.53
2023-05-05T19:18:42.034Z,28.93
2023-05-05T19:21:45.149Z,27.17
2023-05-05T19:24:47.886Z,35.13
2023-05-05T19:27:50.703Z,42.40
2023-05-05T19:30:53.545Z,34.53
2023-05-05T19:34:01.362Z,31.53
2023-05-05T19:37:04.084Z,26.67
2023-05-05T19:40:07.555Z,28.27
2023-05-05T19:43:10.515Z,31.23
2023-05-05T19:46:14.642Z,44.90
2023-05-05T19:49:17.487Z,36.57
2023-05-05T19:52:22.728Z,25.70
2023-05-05T19:55:25.922Z,23.48
2023-05-05T19:58:28.861Z,24.90
2023-05-05T20:01:33.099Z,19.47
2023-05-05T20:04:36.199Z,18.37
2023-05-05T20:07:38.926Z,21.38
2023-05-05T20:10:41.772Z,19.80
2023-05-05T20:13:45.055Z,17.80
2023-05-05T20:16:48.581Z,22.63
2023-05-05T20:19:51.654Z,31.23
2023-05-05T20:22:54.409Z,23.77
2023-05-05T20:25:57.497Z,21.23
2023-05-05T20:29:00.306Z,18.70
2023-05-05T20:32:03.304Z,21.90
2023-05-05T20:35:06.597Z,22.93
2023-05-05T20:38:09.944Z,21.75
2023-05-05T20:41:12.976Z,22.92
2023-05-05T20:44:15.819Z,27.45
2023-05-05T20:47:18.643Z,20.50
2023-05-05T20:50:21.588Z,17.93
2023-05-05T20:53:25.569Z,21.70
2023-05-05T20:56:28.438Z,20.08
2023-05-05T20:59:32.608Z,20.65
2023-05-05T21:02:35.747Z,23.57
2023-05-05T21:05:40.215Z,26.50
2023-05-05T21:08:42.984Z,25.70
2023-05-05T21:11:45.986Z,30.75
2023-05-05T21:14:48.848Z,26.75
2023-05-05T21:17:51.895Z,28.33
2023-05-05T21:20:54.720Z,23.40
2023-05-05T21:23:58.225Z,23.23
2023-05-05T21:27:01.133Z,25.17
2023-05-05T21:30:07.750Z,23.55
2023-05-05T21:33:12.326Z,34.17
2023-05-05T21:36:17.636Z,33.47
2023-05-05T21:39:20.410Z,26.70
2023-05-05T21:42:23.192Z,30.70
2023-05-05T21:45:26.036Z,32.97
2023-05-05T21:48:28.945Z,42.70
2023-05-05T21:51:31.788Z,35.17
2023-05-05T21:54:34.544Z,41.40
2023-05-05T21:57:37.369Z,39.33
2023-05-05T22:00:41.688Z,35.47
2023-05-05T22:03:44.552Z,34.10
2023-05-05T22:06:47.370Z,37.73
2023-05-05T22:09:50.205Z,33.30
2023-05-05T22:12:53.065Z,30.90
2023-05-05T22:15:55.899Z,29.92
2023-05-05T22:18:59.114Z,28.67
2023-05-05T22:22:02.872Z,23.77
2023-05-05T22:25:06.347Z,26.63
2023-05-05T22:28:11.575Z,23.45
2023-05-05T22:31:14.467Z,26.73
2023-05-05T22:34:18.869Z,24.80
2023-05-05T22:37:21.668Z,25.37
2023-05-05T22:40:24.449Z,27.20
2023-05-05T22:43:27.264Z,29.80
2023-05-05T22:46:30.391Z,29.80
2023-05-05T22:49:33.485Z,31.00
2023-05-05T22:52:36.768Z,27.47
2023-05-05T22:55:39.669Z,26.27
2023-05-05T22:58:42.535Z,26.67
2023-05-05T23:01:45.299Z,29.50
2023-05-05T23:04:48.264Z,31.43
2023-05-05T23:07:51.251Z,31.13
2023-05-05T23:10:54.159Z,28.63
2023-05-05T23:13:57.275Z,30.60
2023-05-05T23:17:00.266Z,33.78
2023-05-05T23:20:04.439Z,43.30
2023-05-05T23:23:07.292Z,40.17
2023-05-05T23:26:10.118Z,39.70
2023-05-05T23:29:12.908Z,34.17
2023-05-05T23:32:15.928Z,35.78
2023-05-05T23:35:19.135Z,50.13
2023-05-05T23:38:22.011Z,49.93
2023-05-05T23:41:24.924Z,52.08
2023-05-05T23:44:27.895Z,38.22
2023-05-05T23:47:30.799Z,32.92
2023-05-05T23:50:33.592Z,37.47
2023-05-05T23:53:36.421Z,40.37
2023-05-05T23:56:40.880Z,42.92
2023-05-05T23:59:43.692Z,59.58
